createdAt,value
2018-09-30T00:02:00.203Z,4.43
2018-09-30T00:04:30.561Z,3.97
2018-09-30T00:07:00.585Z,6.23
2018-09-30T00:09:31.502Z,7.70
2018-09-30T00:12:02.717Z,4.87
2018-09-30T00:14:32.755Z,3.87
2018-09-30T00:17:02.952Z,3.60
2018-09-30T00:19:33.051Z,4.10
2018-09-30T00:22:03.232Z,3.93
2018-09-30T00:24:38.890Z,2.83
2018-09-30T00:27:14.569Z,4.53
2018-09-30T00:29:44.817Z,2.67
2018-09-30T00:32:14.834Z,3.10
2018-09-30T00:34:45.331Z,4.13
2018-09-30T00:37:15.342Z,4.70
2018-09-30T00:39:45.579Z,4.17
2018-09-30T00:42:15.591Z,2.57
2018-09-30T00:44:45.818Z,4.27
2018-09-30T00:47:15.849Z,3.30
2018-09-30T00:49:45.888Z,5.43
2018-09-30T00:52:15.924Z,5.30
2018-09-30T00:54:45.952Z,3.67
2018-09-30T00:57:15.993Z,2.30
2018-09-30T00:59:46.516Z,5.37
2018-09-30T01:02:16.556Z,2.53
2018-09-30T01:04:46.551Z,3.83
2018-09-30T01:07:16.595Z,5.23
2018-09-30T01:09:46.932Z,5.77
2018-09-30T01:12:16.988Z,4.43
2018-09-30T01:14:47.011Z,4.50
2018-09-30T01:17:17.108Z,3.00
2018-09-30T01:19:47.133Z,2.70
2018-09-30T01:22:17.142Z,6.10
2018-09-30T01:24:47.467Z,4.20
2018-09-30T01:27:17.451Z,3.30
2018-09-30T01:29:47.487Z,4.60
2018-09-30T01:32:17.553Z,4.20
2018-09-30T01:34:47.923Z,4.97
2018-09-30T01:37:17.942Z,3.37
2018-09-30T01:39:47.951Z,6.87
2018-09-30T01:42:17.999Z,4.13
2018-09-30T01:44:48.018Z,3.03
2018-09-30T01:47:24.855Z,4.83
2018-09-30T01:49:55.090Z,4.03
2018-09-30T01:53:02.086Z,4.83
2018-09-30T01:55:32.150Z,4.40
2018-09-30T01:58:02.185Z,3.77
2018-09-30T02:00:32.216Z,3.77
2018-09-30T02:03:02.570Z,3.17
2018-09-30T02:05:32.587Z,3.33
2018-09-30T02:08:02.614Z,3.43
2018-09-30T02:10:32.647Z,4.87
2018-09-30T02:13:02.851Z,4.47
2018-09-30T02:15:32.884Z,7.00
2018-09-30T02:18:03.124Z,5.70
2018-09-30T02:20:33.502Z,5.03
2018-09-30T02:23:03.511Z,3.37
2018-09-30T02:25:33.543Z,4.17
2018-09-30T02:28:03.578Z,4.60
2018-09-30T02:30:33.592Z,3.27
2018-09-30T02:33:03.624Z,5.97
2018-09-30T02:35:33.655Z,5.83
2018-09-30T02:38:03.871Z,4.20
2018-09-30T02:40:33.926Z,2.57
2018-09-30T02:43:03.952Z,2.73
2018-09-30T02:45:34.355Z,7.13
2018-09-30T02:48:04.380Z,4.77
2018-09-30T02:50:34.398Z,4.47
2018-09-30T02:53:07.502Z,6.57
2018-09-30T02:55:39.025Z,4.13
2018-09-30T02:58:09.172Z,3.83
2018-09-30T03:00:39.524Z,5.47
2018-09-30T03:03:09.563Z,4.47
2018-09-30T03:05:39.790Z,3.80
2018-09-30T03:09:18.850Z,4.33
2018-09-30T03:11:49.197Z,4.93
2018-09-30T03:14:19.434Z,4.07
2018-09-30T03:16:49.444Z,2.63
2018-09-30T03:19:19.679Z,4.30
2018-09-30T03:21:49.684Z,3.80
2018-09-30T03:24:19.719Z,3.73
2018-09-30T03:26:49.743Z,3.20
2018-09-30T03:29:20.823Z,5.67
2018-09-30T03:31:51.035Z,4.63
2018-09-30T03:34:21.582Z,3.03
2018-09-30T03:36:51.595Z,3.07
2018-09-30T03:39:21.659Z,3.70
2018-09-30T03:41:51.895Z,3.60
2018-09-30T03:44:21.936Z,4.17
2018-09-30T03:46:51.975Z,3.77
2018-09-30T03:49:22.006Z,2.90
2018-09-30T03:51:52.044Z,3.70
2018-09-30T03:54:22.056Z,3.50
2018-09-30T03:56:52.094Z,4.73
2018-09-30T03:59:22.132Z,3.63
2018-09-30T04:01:52.168Z,2.93
2018-09-30T04:04:22.169Z,3.20
2018-09-30T04:06:52.215Z,4.70
2018-09-30T04:09:22.238Z,2.90
2018-09-30T04:11:52.486Z,4.17
2018-09-30T04:14:22.741Z,4.97
2018-09-30T04:16:52.843Z,2.93
2018-09-30T04:19:23.041Z,6.30
2018-09-30T04:21:53.271Z,3.37
2018-09-30T04:24:23.311Z,3.83
2018-09-30T04:26:53.548Z,3.20
2018-09-30T04:29:23.594Z,7.37
2018-09-30T04:31:53.795Z,3.20
2018-09-30T04:34:23.840Z,4.20
2018-09-30T04:36:53.855Z,5.43
2018-09-30T04:39:23.907Z,8.47
2018-09-30T04:41:53.939Z,13.20
2018-09-30T04:44:23.951Z,6.10
2018-09-30T04:46:53.986Z,3.33
2018-09-30T04:49:30.641Z,6.80
2018-09-30T04:52:00.686Z,3.33
2018-09-30T04:54:30.699Z,3.17
2018-09-30T04:57:00.753Z,4.27
2018-09-30T04:59:31.306Z,4.53
2018-09-30T05:02:01.351Z,3.43
2018-09-30T05:04:31.360Z,6.67
2018-09-30T05:07:01.412Z,5.23
2018-09-30T05:09:31.435Z,3.23
2018-09-30T05:12:01.468Z,3.70
2018-09-30T05:14:31.494Z,2.27
2018-09-30T05:17:01.504Z,4.93
2018-09-30T05:19:31.552Z,5.77
2018-09-30T05:22:01.560Z,6.77
2018-09-30T05:24:31.626Z,5.33
2018-09-30T05:27:02.242Z,4.90
2018-09-30T05:29:32.467Z,3.30
2018-09-30T05:32:02.492Z,3.43
2018-09-30T05:37:08.927Z,4.97
2018-09-30T05:39:39.144Z,3.83
2018-09-30T05:42:09.154Z,5.30
2018-09-30T05:44:39.209Z,4.13
2018-09-30T05:47:09.500Z,5.47
2018-09-30T05:49:39.544Z,4.33
2018-09-30T05:52:09.588Z,4.00
2018-09-30T05:54:39.825Z,3.77
2018-09-30T05:57:09.843Z,6.47
2018-09-30T05:59:39.844Z,3.93
2018-09-30T06:02:10.060Z,6.90
2018-09-30T06:04:40.068Z,6.27
2018-09-30T06:07:10.112Z,7.00
2018-09-30T06:09:41.831Z,9.93
2018-09-30T06:12:11.871Z,8.83
2018-09-30T06:14:41.895Z,7.27
2018-09-30T06:17:11.957Z,4.40
2018-09-30T06:19:42.183Z,6.67
2018-09-30T06:22:12.220Z,6.10
2018-09-30T06:24:42.249Z,7.13
2018-09-30T06:27:12.284Z,4.37
2018-09-30T06:29:42.300Z,7.20
2018-09-30T06:32:12.604Z,6.87
2018-09-30T06:34:42.768Z,6.53
2018-09-30T06:37:12.838Z,5.97
2018-09-30T06:39:43.028Z,7.63
2018-09-30T06:42:13.071Z,6.13
2018-09-30T06:44:43.077Z,4.30
2018-09-30T06:47:13.159Z,9.43
2018-09-30T06:49:43.213Z,6.57
2018-09-30T06:52:13.232Z,5.47
2018-09-30T06:54:43.287Z,6.87
2018-09-30T06:57:13.627Z,4.30
2018-09-30T06:59:43.667Z,4.33
2018-09-30T07:02:13.700Z,6.80
2018-09-30T07:04:42.608Z,5.07
2018-09-30T07:07:12.828Z,7.47
2018-09-30T07:09:49.412Z,4.33
2018-09-30T07:12:19.494Z,4.03
2018-09-30T07:14:49.564Z,5.93
2018-09-30T07:17:20.033Z,14.47
2018-09-30T07:19:50.049Z,3.23
2018-09-30T07:22:20.138Z,9.03
2018-09-30T07:24:50.343Z,10.60
2018-09-30T07:27:20.563Z,9.90
2018-09-30T07:29:50.606Z,8.00
2018-09-30T07:32:20.615Z,7.40
2018-09-30T07:34:50.692Z,7.33
2018-09-30T07:37:23.293Z,6.57
2018-09-30T07:39:55.812Z,6.63
2018-09-30T07:42:28.349Z,8.40
2018-09-30T07:45:01.210Z,9.97
2018-09-30T07:47:31.206Z,9.13
2018-09-30T07:50:01.252Z,7.53
2018-09-30T07:52:31.304Z,8.43
2018-09-30T07:55:01.495Z,7.77
2018-09-30T07:57:31.505Z,8.03
2018-09-30T08:00:01.536Z,7.03
2018-09-30T08:02:31.758Z,9.90
2018-09-30T08:05:01.799Z,6.83
2018-09-30T08:07:31.875Z,8.10
2018-09-30T08:10:02.233Z,7.80
2018-09-30T08:12:32.468Z,8.10
2018-09-30T08:15:02.519Z,7.50
2018-09-30T08:17:32.528Z,5.13
2018-09-30T08:20:02.600Z,7.73
2018-09-30T08:22:32.603Z,4.97
2018-09-30T08:25:03.005Z,7.07
2018-09-30T08:27:33.027Z,4.43
2018-09-30T08:30:03.259Z,7.80
2018-09-30T08:32:33.483Z,5.57
2018-09-30T08:35:03.511Z,5.10
2018-09-30T08:37:38.936Z,5.43
2018-09-30T08:40:09.308Z,5.13
2018-09-30T08:42:39.507Z,2.12
2018-09-30T08:45:10.060Z,5.12
2018-09-30T08:47:40.911Z,3.45
2018-09-30T08:50:11.734Z,4.33
2018-09-30T08:52:42.331Z,4.35
2018-09-30T08:55:12.879Z,5.05
2018-09-30T08:57:43.519Z,6.83
2018-09-30T09:00:14.079Z,7.03
2018-09-30T09:02:45.033Z,6.37
2018-09-30T09:05:15.823Z,6.53
2018-09-30T09:07:46.412Z,5.10
2018-09-30T09:10:16.998Z,6.08
2018-09-30T09:12:47.790Z,5.95
2018-09-30T09:15:18.411Z,3.35
2018-09-30T09:17:49.173Z,3.58
2018-09-30T09:20:19.899Z,3.85
2018-09-30T09:22:50.573Z,7.50
2018-09-30T09:25:21.384Z,3.85
2018-09-30T09:27:51.968Z,5.42
2018-09-30T09:30:22.542Z,4.40
2018-09-30T09:32:53.117Z,4.12
2018-09-30T09:35:23.871Z,6.05
2018-09-30T09:37:54.699Z,10.08
2018-09-30T09:40:25.628Z,3.62
2018-09-30T09:42:56.412Z,5.95
2018-09-30T09:45:26.967Z,4.33
2018-09-30T09:47:57.743Z,5.95
2018-09-30T09:50:28.343Z,4.17
2018-09-30T09:52:58.951Z,7.22
2018-09-30T09:55:29.534Z,2.90
2018-09-30T09:58:00.359Z,10.43
2018-09-30T10:00:31.590Z,5.95
2018-09-30T10:03:02.438Z,6.00
2018-09-30T10:05:32.978Z,4.75
2018-09-30T10:08:02.432Z,8.23
2018-09-30T10:10:33.187Z,3.67
2018-09-30T10:13:03.989Z,3.35
2018-09-30T10:15:34.750Z,8.45
2018-09-30T10:18:05.331Z,5.60
2018-09-30T10:20:35.920Z,5.12
2018-09-30T10:23:06.571Z,5.80
2018-09-30T10:25:37.917Z,8.83
2018-09-30T10:28:08.527Z,6.30
2018-09-30T10:30:39.193Z,6.90
2018-09-30T10:33:09.796Z,5.33
2018-09-30T10:35:40.391Z,4.87
2018-09-30T10:38:10.968Z,5.08
2018-09-30T10:40:41.570Z,4.97
2018-09-30T10:43:12.127Z,6.67
2018-09-30T10:45:42.735Z,4.78
2018-09-30T10:48:13.362Z,4.90
2018-09-30T10:50:44.132Z,2.95
2018-09-30T10:53:14.715Z,7.40
2018-09-30T10:55:45.306Z,3.90
2018-09-30T10:58:16.075Z,5.55
2018-09-30T11:00:46.685Z,4.20
2018-09-30T11:03:17.876Z,6.33
2018-09-30T11:05:48.612Z,3.27
2018-09-30T11:08:19.168Z,5.10
2018-09-30T11:10:49.801Z,5.50
2018-09-30T11:13:20.377Z,5.22
2018-09-30T11:15:50.971Z,7.80
2018-09-30T11:18:21.545Z,10.08
2018-09-30T11:20:52.333Z,4.92
2018-09-30T11:23:27.791Z,7.05
2018-09-30T11:26:02.900Z,6.80
2018-09-30T11:28:38.323Z,4.42
2018-09-30T11:31:08.991Z,6.55
2018-09-30T11:33:39.764Z,5.37
2018-09-30T11:36:10.370Z,6.35
2018-09-30T11:38:41.031Z,6.40
2018-09-30T11:41:11.990Z,5.65
2018-09-30T11:43:42.551Z,6.25
2018-09-30T11:46:13.174Z,7.00
2018-09-30T11:48:43.772Z,5.12
2018-09-30T11:51:14.358Z,4.35
2018-09-30T11:53:44.947Z,6.25
2018-09-30T11:56:15.556Z,6.95
2018-09-30T11:58:46.123Z,7.80
2018-09-30T12:01:16.777Z,8.43
2018-09-30T12:03:47.527Z,6.95
2018-09-30T12:06:18.783Z,9.38
2018-09-30T12:08:49.411Z,5.00
2018-09-30T12:11:19.972Z,5.45
2018-09-30T12:13:50.563Z,6.67
2018-09-30T12:16:21.123Z,4.22
2018-09-30T12:18:51.894Z,5.12
2018-09-30T12:21:22.607Z,9.15
2018-09-30T12:23:53.162Z,4.33
2018-09-30T12:26:23.768Z,5.37
2018-09-30T12:28:54.336Z,3.65
2018-09-30T12:31:24.937Z,6.83
2018-09-30T12:33:55.495Z,6.53
2018-09-30T12:36:26.091Z,8.88
2018-09-30T12:38:56.907Z,6.67
2018-09-30T12:41:27.838Z,4.78
2018-09-30T12:43:58.417Z,3.98
2018-09-30T12:46:29.024Z,9.28
2018-09-30T12:48:59.814Z,6.10
2018-09-30T12:51:30.411Z,6.75
2018-09-30T12:54:00.998Z,4.35
2018-09-30T12:56:31.590Z,6.33
2018-09-30T12:59:02.173Z,5.47
2018-09-30T13:01:32.747Z,6.92
2018-09-30T13:04:03.347Z,8.80
2018-09-30T13:06:34.128Z,6.42
2018-09-30T13:09:06.679Z,5.78
2018-09-30T13:11:37.255Z,5.22
2018-09-30T13:14:08.130Z,6.70
2018-09-30T13:16:38.687Z,7.20
2018-09-30T13:19:09.311Z,8.38
2018-09-30T13:21:39.936Z,5.15
2018-09-30T13:24:10.542Z,4.17
2018-09-30T13:26:41.327Z,7.53
2018-09-30T13:29:11.939Z,7.05
2018-09-30T13:31:42.494Z,4.80
2018-09-30T13:34:13.222Z,7.67
2018-09-30T13:36:43.985Z,6.55
2018-09-30T13:39:15.587Z,5.75
2018-09-30T13:41:46.187Z,6.33
2018-09-30T13:44:16.748Z,5.40
2018-09-30T13:46:47.348Z,4.78
2018-09-30T13:49:18.416Z,4.80
2018-09-30T13:51:49.001Z,5.55
2018-09-30T13:54:19.646Z,7.60
2018-09-30T13:56:50.592Z,5.87
2018-09-30T13:59:21.171Z,12.23
2018-09-30T14:01:58.319Z,6.05
2018-09-30T14:04:28.927Z,8.65
2018-09-30T14:06:59.710Z,6.87
2018-09-30T14:09:30.507Z,10.75
2018-09-30T14:12:01.098Z,7.05
2018-09-30T14:14:32.043Z,5.83
2018-09-30T14:17:02.634Z,6.08
2018-09-30T14:19:33.200Z,8.60
2018-09-30T14:22:03.815Z,14.05
2018-09-30T14:24:34.370Z,6.25
2018-09-30T14:27:05.405Z,6.22
2018-09-30T14:29:36.075Z,7.12
2018-09-30T14:32:06.889Z,4.83
2018-09-30T14:34:37.665Z,6.92
2018-09-30T14:37:08.267Z,6.12
2018-09-30T14:39:38.866Z,4.87
2018-09-30T14:42:09.455Z,8.05
2018-09-30T14:44:40.383Z,3.75
2018-09-30T14:47:10.975Z,8.00
2018-09-30T14:49:41.536Z,5.33
2018-09-30T14:52:12.471Z,6.25
2018-09-30T14:54:43.050Z,4.75
2018-09-30T14:57:13.688Z,5.42
2018-09-30T14:59:44.350Z,7.95
2018-09-30T15:02:15.087Z,4.72
2018-09-30T15:04:45.677Z,5.03
2018-09-30T15:07:16.289Z,4.37
2018-09-30T15:09:47.014Z,6.20
2018-09-30T15:12:17.616Z,5.83
2018-09-30T15:14:48.204Z,5.83
2018-09-30T15:17:18.848Z,8.00
2018-09-30T15:19:49.624Z,7.50
2018-09-30T15:22:20.503Z,8.43
2018-09-30T15:24:51.091Z,6.28
2018-09-30T15:27:21.864Z,4.72
2018-09-30T15:29:52.639Z,5.28
2018-09-30T15:32:23.231Z,4.75
2018-09-30T15:34:53.823Z,7.10
2018-09-30T15:37:25.384Z,5.12
2018-09-30T15:39:56.305Z,5.10
2018-09-30T15:42:26.903Z,3.47
2018-09-30T15:44:57.473Z,6.05
2018-09-30T15:47:28.063Z,4.15
2018-09-30T15:49:58.811Z,7.10
2018-09-30T15:52:29.411Z,9.15
2018-09-30T15:54:59.971Z,5.00
2018-09-30T15:57:30.763Z,6.35
2018-09-30T16:00:01.368Z,10.28
2018-09-30T16:02:32.160Z,7.92
2018-09-30T16:05:02.761Z,4.95
2018-09-30T16:07:33.584Z,9.63
2018-09-30T16:10:04.679Z,7.70
2018-09-30T16:12:35.268Z,6.12
2018-09-30T16:15:06.032Z,4.33
2018-09-30T16:17:36.623Z,5.05
2018-09-30T16:20:07.568Z,4.83
2018-09-30T16:22:38.131Z,6.17
2018-09-30T16:25:08.740Z,7.87
2018-09-30T16:27:39.310Z,7.53
2018-09-30T16:30:09.910Z,5.65
2018-09-30T16:32:40.696Z,9.05
2018-09-30T16:35:11.377Z,8.53
2018-09-30T16:37:42.079Z,7.53
2018-09-30T16:40:12.700Z,4.45
2018-09-30T16:42:43.264Z,5.85
2018-09-30T16:45:13.863Z,7.87
2018-09-30T16:47:44.424Z,5.30
2018-09-30T16:50:15.032Z,6.15
2018-09-30T16:52:45.599Z,3.72
2018-09-30T16:55:16.189Z,5.80
2018-09-30T16:57:46.935Z,7.12
2018-09-30T17:00:17.540Z,6.37
2018-09-30T17:02:48.117Z,4.30
2018-09-30T17:05:18.744Z,3.05
2018-09-30T17:07:49.520Z,7.67
2018-09-30T17:10:20.128Z,6.22
2018-09-30T17:12:50.704Z,4.10
2018-09-30T17:15:21.267Z,3.50
2018-09-30T17:17:52.058Z,6.00
2018-09-30T17:22:59.510Z,5.53
2018-09-30T17:25:30.104Z,4.28
2018-09-30T17:28:00.950Z,6.65
2018-09-30T17:30:31.604Z,6.55
2018-09-30T17:33:02.859Z,5.40
2018-09-30T17:35:33.398Z,5.10
2018-09-30T17:38:03.988Z,6.10
2018-09-30T17:40:34.603Z,7.17
2018-09-30T17:43:05.175Z,2.62
2018-09-30T17:45:35.771Z,4.50
2018-09-30T17:48:06.675Z,4.35
2018-09-30T17:50:38.249Z,3.25
2018-09-30T17:53:08.837Z,6.22
2018-09-30T17:55:39.420Z,3.27
2018-09-30T17:58:10.129Z,6.08
2018-09-30T18:00:40.795Z,4.75
2018-09-30T18:03:11.375Z,5.03
2018-09-30T18:05:41.959Z,5.85
2018-09-30T18:08:12.519Z,6.72
2018-09-30T18:10:43.112Z,4.75
2018-09-30T18:13:13.712Z,8.18
2018-09-30T18:15:44.291Z,6.50
2018-09-30T18:18:14.926Z,11.03
2018-09-30T18:20:45.493Z,4.90
2018-09-30T18:23:16.097Z,6.10
2018-09-30T18:25:46.663Z,6.42
2018-09-30T18:28:17.251Z,8.33
2018-09-30T18:30:47.811Z,7.62
2018-09-30T18:33:18.547Z,8.60
2018-09-30T18:35:49.325Z,8.80
2018-09-30T18:38:20.250Z,8.48
2018-09-30T18:40:51.012Z,8.28
2018-09-30T18:43:21.599Z,8.25
2018-09-30T18:45:52.167Z,9.35
2018-09-30T18:48:22.751Z,9.70
2018-09-30T18:50:53.323Z,11.75
2018-09-30T18:53:23.977Z,14.43
2018-09-30T18:55:54.795Z,13.35
2018-09-30T18:58:25.564Z,13.13
2018-09-30T19:00:56.508Z,11.00
2018-09-30T19:03:27.089Z,12.88
2018-09-30T19:05:58.187Z,11.85
2018-09-30T19:08:28.764Z,13.18
2018-09-30T19:10:59.376Z,11.10
2018-09-30T19:13:29.998Z,10.65
2018-09-30T19:16:00.679Z,9.05
2018-09-30T19:18:31.383Z,9.48
2018-09-30T19:21:01.975Z,8.70
2018-09-30T19:23:32.588Z,9.33
2018-09-30T19:26:03.183Z,8.43
2018-09-30T19:28:33.950Z,10.03
2018-09-30T19:31:04.559Z,7.75
2018-09-30T19:33:35.468Z,6.28
2018-09-30T19:36:09.357Z,8.00
2018-09-30T19:38:40.280Z,8.10
2018-09-30T19:41:10.881Z,11.45
2018-09-30T19:43:41.480Z,8.25
2018-09-30T19:46:12.239Z,7.00
2018-09-30T19:48:42.893Z,6.80
2018-09-30T19:51:13.614Z,6.40
2018-09-30T19:53:44.199Z,8.85
2018-09-30T19:56:14.764Z,8.93
2018-09-30T19:58:45.642Z,8.53
2018-09-30T20:01:16.208Z,6.35
2018-09-30T20:03:46.798Z,7.10
2018-09-30T20:06:17.391Z,6.50
2018-09-30T20:08:47.988Z,5.95
2018-09-30T20:11:18.540Z,7.25
2018-09-30T20:13:49.131Z,7.33
2018-09-30T20:16:19.692Z,7.00
2018-09-30T20:18:50.276Z,6.37
2018-09-30T20:21:20.839Z,10.23
2018-09-30T20:23:51.459Z,7.50
2018-09-30T20:26:22.128Z,11.00
2018-09-30T20:28:53.687Z,9.98
2018-09-30T20:31:24.250Z,6.97
2018-09-30T20:33:55.021Z,8.83
2018-09-30T20:36:25.767Z,9.25
2018-09-30T20:38:56.367Z,5.45
2018-09-30T20:41:26.927Z,6.35
2018-09-30T20:43:57.519Z,7.12
2018-09-30T20:46:28.100Z,6.25
2018-09-30T20:48:58.813Z,7.87
2018-09-30T20:51:29.488Z,8.83
2018-09-30T20:54:00.060Z,8.28
2018-09-30T20:56:30.645Z,8.13
2018-09-30T20:59:01.212Z,6.42
2018-09-30T21:01:31.807Z,6.83
2018-09-30T21:04:02.382Z,6.87
2018-09-30T21:06:37.201Z,12.90
2018-09-30T21:09:09.031Z,9.63
2018-09-30T21:11:40.095Z,7.53
2018-09-30T21:14:10.658Z,7.67
2018-09-30T21:16:41.255Z,5.53
2018-09-30T21:19:12.020Z,9.78
2018-09-30T21:21:42.642Z,7.72
2018-09-30T21:24:13.408Z,8.93
2018-09-30T21:26:44.008Z,5.17
2018-09-30T21:29:14.572Z,6.42
2018-09-30T21:31:45.167Z,8.18
2018-09-30T21:34:15.795Z,8.28
2018-09-30T21:36:46.514Z,7.70
2018-09-30T21:39:17.128Z,6.53
2018-09-30T21:41:47.683Z,8.68
2018-09-30T21:44:18.268Z,7.28
2018-09-30T21:46:49.006Z,7.72
2018-09-30T21:49:19.596Z,8.05
2018-09-30T21:51:50.151Z,8.23
2018-09-30T21:54:20.731Z,8.18
2018-09-30T21:56:51.323Z,11.20
2018-09-30T21:59:21.056Z,5.47
2018-09-30T22:01:51.649Z,7.92
2018-09-30T22:04:22.440Z,13.13
2018-09-30T22:06:53.051Z,10.45
2018-09-30T22:09:23.630Z,12.40
2018-09-30T22:11:54.235Z,9.70
2018-09-30T22:14:24.843Z,10.63
2018-09-30T22:16:55.456Z,10.53
2018-09-30T22:19:26.146Z,10.53
2018-09-30T22:21:56.845Z,8.43
2018-09-30T22:24:27.621Z,8.58
2018-09-30T22:26:58.272Z,10.85
2018-09-30T22:29:28.978Z,13.50
2018-09-30T22:31:59.583Z,11.10
2018-09-30T22:34:30.163Z,8.63
2018-09-30T22:37:00.755Z,11.78
2018-09-30T22:39:31.363Z,11.08
2018-09-30T22:42:01.991Z,10.00
2018-09-30T22:44:32.595Z,9.08
2018-09-30T22:47:03.356Z,9.43
2018-09-30T22:52:38.562Z,11.78
2018-09-30T22:55:09.171Z,11.50
2018-09-30T22:57:38.815Z,11.93
2018-09-30T23:00:09.487Z,9.95
2018-09-30T23:02:40.086Z,12.15
2018-09-30T23:05:11.030Z,14.70
2018-09-30T23:07:41.828Z,11.10
2018-09-30T23:10:13.155Z,9.08
2018-09-30T23:12:43.869Z,11.10
2018-09-30T23:15:14.419Z,8.15
2018-09-30T23:17:45.344Z,7.90
2018-09-30T23:20:16.916Z,9.75
2018-09-30T23:22:47.777Z,8.28
2018-09-30T23:25:18.359Z,11.40
2018-09-30T23:27:48.963Z,12.23
2018-09-30T23:30:19.545Z,11.15
2018-09-30T23:32:50.142Z,12.15
2018-09-30T23:35:20.923Z,10.68
2018-09-30T23:37:51.517Z,14.55
2018-09-30T23:40:22.133Z,12.75
2018-09-30T23:42:52.759Z,13.68
2018-09-30T23:45:23.498Z,8.78
2018-09-30T23:47:54.278Z,12.95
2018-09-30T23:50:24.852Z,8.75
2018-09-30T23:52:55.464Z,16.93
2018-09-30T23:55:26.063Z,13.28
2018-09-30T23:58:09.538Z,12.68
